createdAt,value
2018-09-24T00:00:29.161Z,98845.69
2018-09-24T00:03:01.379Z,98840.41
2018-09-24T00:05:33.749Z,98856.28
2018-09-24T00:08:06.067Z,98864.55
2018-09-24T00:10:38.338Z,98869.66
2018-09-24T00:13:10.629Z,98858.97
2018-09-24T00:15:42.921Z,98872.73
2018-09-24T00:18:15.132Z,98874.31
2018-09-24T00:20:47.388Z,98889.49
2018-09-24T00:23:19.658Z,98887.09
2018-09-24T00:25:51.925Z,98897.70
2018-09-24T00:28:24.128Z,98901.29
2018-09-24T00:30:56.376Z,98906.84
2018-09-24T00:33:28.632Z,98915.75
2018-09-24T00:36:00.882Z,98926.14
2018-09-24T00:38:33.129Z,98927.20
2018-09-24T00:41:05.414Z,98930.97
2018-09-24T00:43:37.678Z,98937.61
2018-09-24T00:46:09.952Z,98938.27
2018-09-24T00:48:42.187Z,98945.55
2018-09-24T00:51:14.517Z,98954.34
2018-09-24T00:53:46.777Z,98951.61
2018-09-24T00:56:19.152Z,98964.84
2018-09-24T00:58:51.384Z,98963.97
2018-09-24T01:01:23.860Z,98967.94
2018-09-24T01:03:56.096Z,98974.55
2018-09-24T01:06:28.398Z,98982.81
2018-09-24T01:09:00.803Z,98987.87
2018-09-24T01:11:33.061Z,98974.20
2018-09-24T01:14:12.101Z,98992.06
2018-09-24T01:16:44.324Z,99002.79
2018-09-24T01:19:16.623Z,99009.52
2018-09-24T01:21:48.868Z,99009.61
2018-09-24T01:24:21.093Z,99011.17
2018-09-24T01:26:53.345Z,99004.33
2018-09-24T01:29:25.595Z,99005.47
2018-09-24T01:31:57.960Z,99013.06
2018-09-24T01:34:30.246Z,99013.37
2018-09-24T01:37:02.486Z,99019.84
2018-09-24T01:39:34.751Z,99007.83
2018-09-24T01:42:07.012Z,99026.02
2018-09-24T01:44:39.349Z,99029.45
2018-09-24T01:47:11.592Z,99024.95
2018-09-24T01:49:43.817Z,99034.17
2018-09-24T01:52:16.157Z,99030.96
2018-09-24T01:54:48.400Z,99036.70
2018-09-24T01:57:20.729Z,99035.19
2018-09-24T01:59:56.349Z,99033.13
2018-09-24T02:02:28.577Z,99038.34
2018-09-24T02:05:00.869Z,99040.67
2018-09-24T02:07:33.115Z,99042.94
2018-09-24T02:10:05.419Z,99053.12
2018-09-24T02:12:37.682Z,99050.77
2018-09-24T02:15:09.965Z,99048.45
2018-09-24T02:17:42.243Z,99049.75
2018-09-24T02:20:14.541Z,99049.59
2018-09-24T02:22:46.767Z,99042.91
2018-09-24T02:25:19.037Z,99052.98
2018-09-24T02:27:51.359Z,99048.83
2018-09-24T02:30:23.584Z,99061.06
2018-09-24T02:32:55.881Z,99064.58
2018-09-24T02:35:28.184Z,99071.23
2018-09-24T02:38:00.437Z,99076.63
2018-09-24T02:40:32.705Z,99087.04
2018-09-24T02:43:04.972Z,99087.91
2018-09-24T02:45:37.256Z,99084.98
2018-09-24T02:48:09.553Z,99100.76
2018-09-24T02:50:41.800Z,99109.70
2018-09-24T02:53:14.041Z,99114.93
2018-09-24T02:55:46.300Z,99119.06
2018-09-24T02:58:19.668Z,99112.27
2018-09-24T03:00:51.941Z,99119.41
2018-09-24T03:03:24.191Z,99114.02
2018-09-24T03:05:56.693Z,99119.65
2018-09-24T03:08:28.964Z,99111.09
2018-09-24T03:11:03.304Z,99113.47
2018-09-24T03:13:35.676Z,99120.38
2018-09-24T03:16:07.946Z,99119.67
2018-09-24T03:18:40.281Z,99121.44
2018-09-24T03:21:12.553Z,99118.13
2018-09-24T03:23:44.933Z,99126.69
2018-09-24T03:26:17.224Z,99135.24
2018-09-24T03:28:49.694Z,99144.58
2018-09-24T03:31:21.910Z,99146.59
2018-09-24T03:33:54.157Z,99154.91
2018-09-24T03:36:26.412Z,99157.75
2018-09-24T03:38:58.700Z,99155.53
2018-09-24T03:41:30.944Z,99152.83
2018-09-24T03:44:03.225Z,99161.41
2018-09-24T03:46:35.449Z,99161.52
2018-09-24T03:49:08.189Z,99167.16
2018-09-24T03:51:40.401Z,99177.50
2018-09-24T03:54:12.673Z,99168.69
2018-09-24T03:56:44.899Z,99177.40
2018-09-24T03:59:17.220Z,99184.30
2018-09-24T04:01:49.438Z,99186.36
2018-09-24T04:04:27.205Z,99182.39
2018-09-24T04:07:05.446Z,99194.68
2018-09-24T04:09:43.533Z,99196.86
2018-09-24T04:12:21.424Z,99197.78
2018-09-24T04:14:59.421Z,99202.26
2018-09-24T04:17:37.236Z,99212.49
2018-09-24T04:20:15.112Z,99232.03
2018-09-24T04:22:53.020Z,99230.53
2018-09-24T04:25:30.928Z,99231.02
2018-09-24T04:28:08.777Z,99244.83
2018-09-24T04:30:46.665Z,99242.27
2018-09-24T04:33:24.644Z,99247.88
2018-09-24T04:36:02.668Z,99247.53
2018-09-24T04:38:40.581Z,99255.41
2018-09-24T04:41:18.338Z,99257.19
2018-09-24T04:43:56.244Z,99257.48
2018-09-24T04:46:34.149Z,99266.95
2018-09-24T04:49:12.170Z,99271.03
2018-09-24T04:51:50.168Z,99280.76
2018-09-24T04:54:28.062Z,99285.47
2018-09-24T04:57:06.074Z,99291.22
2018-09-24T04:59:44.181Z,99297.34
2018-09-24T05:02:22.212Z,99303.86
2018-09-24T05:05:00.087Z,99307.81
2018-09-24T05:07:38.015Z,99308.72
2018-09-24T05:10:15.819Z,99310.38
2018-09-24T05:12:53.697Z,99313.95
2018-09-24T05:15:31.445Z,99313.17
2018-09-24T05:18:09.434Z,99312.15
2018-09-24T05:20:47.172Z,99316.22
2018-09-24T05:23:25.134Z,99322.77
2018-09-24T05:26:03.095Z,99320.31
2018-09-24T05:28:41.070Z,99325.18
2018-09-24T05:31:19.041Z,99331.55
2018-09-24T05:33:56.945Z,99334.09
2018-09-24T05:36:34.729Z,99335.25
2018-09-24T05:39:13.824Z,99336.39
2018-09-24T05:41:51.669Z,99345.48
2018-09-24T05:44:29.548Z,99354.28
2018-09-24T05:47:07.472Z,99361.17
2018-09-24T05:49:45.324Z,99367.42
2018-09-24T05:52:23.320Z,99367.80
2018-09-24T05:55:01.145Z,99370.91
2018-09-24T05:57:39.091Z,99378.05
2018-09-24T06:00:17.073Z,99390.66
2018-09-24T06:02:54.883Z,99400.41
2018-09-24T06:05:32.876Z,99405.48
2018-09-24T06:08:10.884Z,99412.78
2018-09-24T06:10:48.894Z,99423.80
2018-09-24T06:13:26.898Z,99422.78
2018-09-24T06:16:04.789Z,99423.31
2018-09-24T06:18:42.821Z,99431.30
2018-09-24T06:21:20.729Z,99436.02
2018-09-24T06:23:58.621Z,99433.27
2018-09-24T06:26:36.632Z,99431.31
2018-09-24T06:29:14.520Z,99431.38
2018-09-24T06:31:52.501Z,99438.00
2018-09-24T06:34:30.544Z,99440.34
2018-09-24T06:37:08.524Z,99440.77
2018-09-24T06:39:46.545Z,99451.50
2018-09-24T06:42:24.434Z,99454.31
2018-09-24T06:45:02.349Z,99464.30
2018-09-24T06:47:40.316Z,99465.42
2018-09-24T06:50:18.371Z,99474.33
2018-09-24T06:52:56.376Z,99484.42
2018-09-24T06:55:34.220Z,99482.39
2018-09-24T06:58:12.281Z,99493.12
2018-09-24T07:00:50.239Z,99499.17
2018-09-24T07:03:28.241Z,99499.78
2018-09-24T07:06:06.213Z,99509.12
2018-09-24T07:08:44.090Z,99504.95
2018-09-24T07:11:22.157Z,99512.75
2018-09-24T07:14:00.145Z,99522.59
2018-09-24T07:16:38.078Z,99535.86
2018-09-24T07:19:16.038Z,99538.75
2018-09-24T07:21:54.098Z,99547.92
2018-09-24T07:24:31.984Z,99549.50
2018-09-24T07:27:09.986Z,99558.17
2018-09-24T07:29:48.002Z,99561.88
2018-09-24T07:32:25.936Z,99559.49
2018-09-24T07:35:03.818Z,99563.53
2018-09-24T07:37:41.869Z,99563.22
2018-09-24T07:40:19.830Z,99570.30
2018-09-24T07:42:57.911Z,99570.34
2018-09-24T07:45:35.883Z,99567.45
2018-09-24T07:48:13.777Z,99570.03
2018-09-24T07:50:51.726Z,99567.48
2018-09-24T07:53:29.700Z,99572.58
2018-09-24T07:56:07.667Z,99578.48
2018-09-24T07:58:45.586Z,99583.23
2018-09-24T08:01:23.614Z,99577.95
2018-09-24T08:04:01.596Z,99586.84
2018-09-24T08:06:39.617Z,99586.02
2018-09-24T08:09:17.541Z,99592.92
2018-09-24T08:11:55.428Z,99600.30
2018-09-24T08:14:33.489Z,99599.53
2018-09-24T08:17:11.453Z,99602.20
2018-09-24T08:19:49.429Z,99608.16
2018-09-24T08:22:27.413Z,99609.48
2018-09-24T08:25:05.375Z,99615.34
2018-09-24T08:27:43.286Z,99619.77
2018-09-24T08:30:21.331Z,99617.04
2018-09-24T08:32:59.286Z,99614.81
2018-09-24T08:35:37.257Z,99613.70
2018-09-24T08:38:15.301Z,99615.00
2018-09-24T08:40:53.107Z,99615.05
2018-09-24T08:43:31.106Z,99620.64
2018-09-24T08:46:09.148Z,99626.41
2018-09-24T08:48:47.073Z,99632.33
2018-09-24T08:51:25.053Z,99638.98
2018-09-24T08:54:03.103Z,99633.34
2018-09-24T08:56:41.170Z,99634.69
2018-09-24T08:59:19.027Z,99633.81
2018-09-24T09:01:56.882Z,99637.25
2018-09-24T09:04:34.677Z,99635.69
2018-09-24T09:07:12.653Z,99638.44
2018-09-24T09:09:50.481Z,99635.91
2018-09-24T09:12:28.564Z,99644.82
2018-09-24T09:15:06.520Z,99644.70
2018-09-24T09:17:44.489Z,99648.52
2018-09-24T09:20:22.391Z,99654.56
2018-09-24T09:23:00.275Z,99655.59
2018-09-24T09:25:38.269Z,99661.49
2018-09-24T09:28:16.106Z,99659.11
2018-09-24T09:30:54.181Z,99664.47
2018-09-24T09:33:32.010Z,99662.64
2018-09-24T09:36:10.104Z,99667.70
2018-09-24T09:38:47.990Z,99663.84
2018-09-24T09:41:25.884Z,99669.40
2018-09-24T09:44:03.945Z,99660.14
2018-09-24T09:46:41.763Z,99659.45
2018-09-24T09:49:19.808Z,99661.73
2018-09-24T09:51:57.737Z,99655.22
2018-09-24T09:54:35.725Z,99657.05
2018-09-24T09:57:13.668Z,99648.31
2018-09-24T09:59:51.499Z,99647.66
2018-09-24T10:02:29.374Z,99648.16
2018-09-24T10:05:07.433Z,99649.55
2018-09-24T10:07:45.440Z,99651.47
2018-09-24T10:10:23.367Z,99647.28
2018-09-24T10:13:01.359Z,99645.63
2018-09-24T10:15:39.364Z,99634.63
2018-09-24T10:18:17.312Z,99636.17
2018-09-24T10:20:55.178Z,99638.23
2018-09-24T10:23:33.142Z,99633.38
2018-09-24T10:26:11.151Z,99633.59
2018-09-24T10:28:49.175Z,99631.18
2018-09-24T10:31:27.144Z,99618.57
2018-09-24T10:34:04.945Z,99626.13
2018-09-24T10:36:42.902Z,99636.77
2018-09-24T10:39:20.784Z,99625.14
2018-09-24T10:41:58.588Z,99626.47
2018-09-24T10:44:36.613Z,99626.86
2018-09-24T10:47:14.580Z,99632.42
2018-09-24T10:49:52.523Z,99627.47
2018-09-24T10:52:30.451Z,99625.05
2018-09-24T10:55:08.442Z,99619.88
2018-09-24T10:57:46.305Z,99632.47
2018-09-24T11:00:24.244Z,99637.34
2018-09-24T11:03:02.152Z,99636.77
2018-09-24T11:05:40.089Z,99644.70
2018-09-24T11:08:18.084Z,99642.98
2018-09-24T11:10:56.115Z,99641.59
2018-09-24T11:13:34.083Z,99634.98
2018-09-24T11:16:12.152Z,99627.22
2018-09-24T11:18:49.905Z,99627.81
2018-09-24T11:21:27.861Z,99621.75
2018-09-24T11:24:05.969Z,99624.52
2018-09-24T11:26:43.975Z,99637.30
2018-09-24T11:29:22.034Z,99629.98
2018-09-24T11:32:00.079Z,99621.95
2018-09-24T11:34:38.039Z,99627.30
2018-09-24T11:37:16.072Z,99634.10
2018-09-24T11:39:54.007Z,99634.55
2018-09-24T11:42:31.990Z,99626.70
2018-09-24T11:45:09.995Z,99626.83
2018-09-24T11:47:47.964Z,99626.94
2018-09-24T11:50:25.901Z,99631.51
2018-09-24T11:53:03.924Z,99620.87
2018-09-24T11:55:41.872Z,99618.20
2018-09-24T11:58:19.939Z,99613.23
2018-09-24T12:00:57.921Z,99620.34
2018-09-24T12:03:35.861Z,99611.89
2018-09-24T12:06:13.821Z,99615.95
2018-09-24T12:08:51.764Z,99603.95
2018-09-24T12:11:29.726Z,99599.42
2018-09-24T12:14:07.638Z,99598.88
2018-09-24T12:16:45.477Z,99600.05
2018-09-24T12:19:23.437Z,99601.73
2018-09-24T12:22:01.508Z,99606.31
2018-09-24T12:24:39.345Z,99602.36
2018-09-24T12:27:17.414Z,99605.41
2018-09-24T12:29:55.332Z,99606.16
2018-09-24T12:32:33.337Z,99613.41
2018-09-24T12:35:11.348Z,99605.84
2018-09-24T12:37:49.266Z,99607.42
2018-09-24T12:40:27.174Z,99609.05
2018-09-24T12:43:05.207Z,99608.52
2018-09-24T12:45:43.106Z,99599.52
2018-09-24T12:48:21.153Z,99596.10
2018-09-24T12:50:59.028Z,99596.10
2018-09-24T12:53:36.960Z,99588.09
2018-09-24T12:56:14.913Z,99586.92
2018-09-24T12:58:52.844Z,99586.72
2018-09-24T13:01:30.894Z,99590.70
2018-09-24T13:04:08.763Z,99597.00
2018-09-24T13:06:46.751Z,99598.47
2018-09-24T13:09:24.839Z,99597.00
2018-09-24T13:12:02.700Z,99588.17
2018-09-24T13:14:40.603Z,99595.09
2018-09-24T13:17:18.445Z,99594.43
2018-09-24T13:19:56.508Z,99592.54
2018-09-24T13:22:34.509Z,99585.08
2018-09-24T13:25:12.548Z,99587.27
2018-09-24T13:27:50.522Z,99582.12
2018-09-24T13:30:28.405Z,99587.56
2018-09-24T13:33:06.405Z,99595.17
2018-09-24T13:35:44.327Z,99593.78
2018-09-24T13:38:22.289Z,99590.95
2018-09-24T13:41:00.385Z,99590.47
2018-09-24T13:43:38.416Z,99592.83
2018-09-24T13:46:16.257Z,99596.25
2018-09-24T13:48:54.213Z,99597.64
2018-09-24T13:51:32.078Z,99593.87
2018-09-24T13:54:10.099Z,99603.04
2018-09-24T13:56:48.093Z,99591.44
2018-09-24T13:59:25.933Z,99592.14
2018-09-24T14:02:03.906Z,99589.94
2018-09-24T14:04:41.874Z,99589.03
2018-09-24T14:07:19.813Z,99586.34
2018-09-24T14:09:57.785Z,99589.61
2018-09-24T14:12:35.684Z,99586.63
2018-09-24T14:15:13.688Z,99584.46
2018-09-24T14:17:51.764Z,99589.02
2018-09-24T14:20:29.745Z,99582.86
2018-09-24T14:23:07.605Z,99584.63
2018-09-24T14:25:45.521Z,99581.05
2018-09-24T14:28:23.480Z,99581.14
2018-09-24T14:31:01.432Z,99579.44
2018-09-24T14:33:39.214Z,99577.39
2018-09-24T14:36:17.138Z,99573.81
2018-09-24T14:38:55.147Z,99574.93
2018-09-24T14:41:33.099Z,99570.86
2018-09-24T14:44:11.018Z,99574.83
2018-09-24T14:46:48.991Z,99576.02
2018-09-24T14:49:26.923Z,99568.39
2018-09-24T14:52:04.924Z,99569.57
2018-09-24T14:54:42.893Z,99569.00
2018-09-24T14:57:20.761Z,99571.58
2018-09-24T14:59:58.630Z,99569.57
2018-09-24T15:02:36.665Z,99574.64
2018-09-24T15:05:14.673Z,99571.95
2018-09-24T15:07:52.534Z,99568.28
2018-09-24T15:10:30.483Z,99564.33
2018-09-24T15:13:08.477Z,99573.92
2018-09-24T15:15:46.526Z,99567.97
2018-09-24T15:18:24.557Z,99573.24
2018-09-24T15:21:02.513Z,99578.77
2018-09-24T15:23:40.417Z,99580.73
2018-09-24T15:26:18.437Z,99579.44
2018-09-24T15:28:56.367Z,99590.70
2018-09-24T15:31:34.197Z,99584.13
2018-09-24T15:34:12.339Z,99584.52
2018-09-24T15:36:50.306Z,99580.73
2018-09-24T15:39:28.332Z,99585.47
2018-09-24T15:42:06.743Z,99574.97
2018-09-24T15:44:44.726Z,99576.62
2018-09-24T15:47:22.696Z,99573.94
2018-09-24T15:50:00.791Z,99571.44
2018-09-24T15:52:38.761Z,99572.88
2018-09-24T15:55:16.730Z,99567.48
2018-09-24T15:57:54.701Z,99570.38
2018-09-24T16:00:32.733Z,99570.25
2018-09-24T16:03:10.786Z,99570.16
2018-09-24T16:05:48.745Z,99578.96
2018-09-24T16:08:26.798Z,99580.77
2018-09-24T16:11:04.821Z,99584.30
2018-09-24T16:13:42.805Z,99583.22
2018-09-24T16:16:20.817Z,99585.37
2018-09-24T16:18:58.673Z,99582.86
2018-09-24T16:21:36.661Z,99592.16
2018-09-24T16:24:14.638Z,99588.85
2018-09-24T16:26:52.638Z,99593.33
2018-09-24T16:29:30.624Z,99595.47
2018-09-24T16:32:08.580Z,99591.48
2018-09-24T16:34:46.523Z,99596.53
2018-09-24T16:37:24.542Z,99593.41
2018-09-24T16:40:02.433Z,99590.61
2018-09-24T16:42:40.461Z,99594.16
2018-09-24T16:45:18.481Z,99599.19
2018-09-24T16:47:56.370Z,99601.58
2018-09-24T16:50:34.388Z,99597.95
2018-09-24T16:53:12.382Z,99600.79
2018-09-24T16:55:50.273Z,99602.16
2018-09-24T16:58:28.281Z,99606.81
2018-09-24T17:01:13.267Z,99618.06
2018-09-24T17:03:51.295Z,99622.62
2018-09-24T17:06:29.340Z,99622.52
2018-09-24T17:09:07.253Z,99627.97
2018-09-24T17:11:45.287Z,99626.80
2018-09-24T17:14:23.140Z,99625.42
2018-09-24T17:17:01.101Z,99638.52
2018-09-24T17:19:39.095Z,99640.33
2018-09-24T17:22:17.109Z,99651.38
2018-09-24T17:24:54.961Z,99648.98
2018-09-24T17:27:32.966Z,99655.61
2018-09-24T17:30:10.960Z,99660.98
2018-09-24T17:32:48.885Z,99663.77
2018-09-24T17:35:26.936Z,99672.87
2018-09-24T17:38:04.887Z,99667.89
2018-09-24T17:40:42.928Z,99676.39
2018-09-24T17:43:20.899Z,99679.66
2018-09-24T17:45:58.963Z,99684.55
2018-09-24T17:48:36.984Z,99686.38
2018-09-24T17:51:15.605Z,99686.34
2018-09-24T17:53:53.465Z,99696.23
2018-09-24T17:56:31.504Z,99694.31
2018-09-24T17:59:09.636Z,99700.61
2018-09-24T18:01:47.969Z,99702.13
2018-09-24T18:04:25.940Z,99701.13
2018-09-24T18:07:03.798Z,99708.80
2018-09-24T18:09:41.802Z,99711.98
2018-09-24T18:12:19.743Z,99710.46
2018-09-24T18:14:57.741Z,99724.02
2018-09-24T18:17:35.635Z,99732.96
2018-09-24T18:20:13.657Z,99732.83
2018-09-24T18:22:51.674Z,99734.45
2018-09-24T18:25:29.771Z,99742.29
2018-09-24T18:28:07.825Z,99741.98
2018-09-24T18:30:45.858Z,99746.06
2018-09-24T18:33:23.963Z,99745.40
2018-09-24T18:36:02.112Z,99753.17
2018-09-24T18:38:40.033Z,99753.77
2018-09-24T18:41:18.100Z,99753.88
2018-09-24T18:43:55.875Z,99757.95
2018-09-24T18:46:33.912Z,99758.78
2018-09-24T18:49:11.866Z,99764.02
2018-09-24T18:51:49.886Z,99767.23
2018-09-24T18:54:27.780Z,99772.61
2018-09-24T18:57:05.766Z,99771.14
2018-09-24T18:59:43.744Z,99775.87
2018-09-24T19:02:21.625Z,99776.25
2018-09-24T19:04:59.639Z,99780.00
2018-09-24T19:07:37.610Z,99781.01
2018-09-24T19:10:15.571Z,99780.73
2018-09-24T19:12:53.510Z,99780.19
2018-09-24T19:15:31.410Z,99775.27
2018-09-24T19:18:09.392Z,99783.81
2018-09-24T19:20:47.425Z,99787.02
2018-09-24T19:23:25.409Z,99793.80
2018-09-24T19:26:03.423Z,99798.80
2018-09-24T19:28:41.308Z,99798.73
2018-09-24T19:31:19.322Z,99800.61
2018-09-24T19:33:57.266Z,99796.78
2018-09-24T19:36:35.224Z,99799.73
2018-09-24T19:39:13.777Z,99795.45
2018-09-24T19:41:51.732Z,99797.17
2018-09-24T19:44:29.641Z,99806.20
2018-09-24T19:47:07.584Z,99804.83
2018-09-24T19:49:45.479Z,99810.20
2018-09-24T19:52:23.486Z,99811.28
2018-09-24T19:57:59.271Z,99810.80
2018-09-24T20:00:56.872Z,99812.52
2018-09-24T20:03:34.924Z,99813.61
2018-09-24T20:06:12.795Z,99811.76
2018-09-24T20:08:53.968Z,99814.19
2018-09-24T20:11:32.007Z,99808.70
2018-09-24T20:14:09.991Z,99817.19
2018-09-24T20:16:47.900Z,99826.05
2018-09-24T20:19:25.784Z,99824.34
2018-09-24T20:22:03.734Z,99823.20
2018-09-24T20:24:41.702Z,99824.09
2018-09-24T20:27:19.716Z,99833.77
2018-09-24T20:29:57.616Z,99831.98
2018-09-24T20:32:35.671Z,99825.85
2018-09-24T20:35:13.532Z,99835.45
2018-09-24T20:37:51.542Z,99835.75
2018-09-24T20:40:29.527Z,99840.01
2018-09-24T20:43:07.425Z,99841.06
2018-09-24T20:45:45.454Z,99839.30
2018-09-24T20:48:23.483Z,99844.34
2018-09-24T20:51:01.429Z,99846.94
2018-09-24T20:53:39.585Z,99845.54
2018-09-24T20:56:17.558Z,99854.20
2018-09-24T20:58:55.543Z,99859.38
2018-09-24T21:01:33.517Z,99862.01
2018-09-24T21:04:12.430Z,99861.33
2018-09-24T21:06:50.415Z,99866.89
2018-09-24T21:09:28.313Z,99866.30
2018-09-24T21:12:06.310Z,99871.83
2018-09-24T21:14:44.198Z,99878.41
2018-09-24T21:17:22.258Z,99877.00
2018-09-24T21:20:00.127Z,99878.11
2018-09-24T21:22:38.066Z,99883.28
2018-09-24T21:25:16.084Z,99881.58
2018-09-24T21:27:54.181Z,99877.97
2018-09-24T21:30:32.034Z,99876.48
2018-09-24T21:33:10.676Z,99880.60
2018-09-24T21:35:48.910Z,99877.36
2018-09-24T21:38:26.798Z,99882.76
2018-09-24T21:41:04.799Z,99876.81
2018-09-24T21:43:42.677Z,99885.67
2018-09-24T21:46:20.690Z,99888.52
2018-09-24T21:48:58.613Z,99887.45
2018-09-24T21:51:36.466Z,99896.46
2018-09-24T21:54:14.394Z,99892.91
2018-09-24T21:56:52.264Z,99896.77
2018-09-24T21:59:30.310Z,99895.95
2018-09-24T22:02:08.293Z,99903.08
2018-09-24T22:04:46.292Z,99908.75
2018-09-24T22:07:24.216Z,99906.34
2018-09-24T22:10:02.139Z,99903.91
2018-09-24T22:12:40.255Z,99907.56
2018-09-24T22:15:18.293Z,99907.42
2018-09-24T22:17:56.229Z,99905.16
2018-09-24T22:20:34.257Z,99909.48
2018-09-24T22:23:12.194Z,99905.56
2018-09-24T22:25:50.236Z,99906.50
2018-09-24T22:28:28.038Z,99910.17
2018-09-24T22:31:05.996Z,99910.45
2018-09-24T22:33:43.778Z,99917.56
2018-09-24T22:36:21.749Z,99918.88
2018-09-24T22:38:59.685Z,99917.56
2018-09-24T22:41:37.644Z,99915.61
2018-09-24T22:44:15.569Z,99917.40
2018-09-24T22:46:53.490Z,99913.58
2018-09-24T22:49:31.456Z,99910.20
2018-09-24T22:52:09.389Z,99917.60
2018-09-24T22:54:47.260Z,99915.74
2018-09-24T22:57:25.036Z,99922.69
2018-09-24T23:00:03.048Z,99930.56
2018-09-24T23:02:40.952Z,99931.91
2018-09-24T23:05:18.789Z,99926.64
2018-09-24T23:07:56.715Z,99926.13
2018-09-24T23:10:34.662Z,99928.75
2018-09-24T23:13:12.597Z,99929.30
2018-09-24T23:15:50.581Z,99918.94
2018-09-24T23:18:28.500Z,99925.65
2018-09-24T23:21:06.458Z,99924.17
2018-09-24T23:23:44.401Z,99930.02
2018-09-24T23:26:22.403Z,99930.43
2018-09-24T23:29:00.438Z,99929.33
2018-09-24T23:31:39.080Z,99930.12
2018-09-24T23:34:17.075Z,99939.09
2018-09-24T23:36:55.044Z,99943.36
2018-09-24T23:39:32.911Z,99940.61
2018-09-24T23:42:10.833Z,99951.86
2018-09-24T23:44:48.850Z,99955.16
2018-09-24T23:47:26.783Z,99949.76
2018-09-24T23:50:04.771Z,99954.09
2018-09-24T23:52:42.765Z,99947.03
2018-09-24T23:55:20.670Z,99959.41
2018-09-24T23:57:58.604Z,99951.59
